createdAt,value
2023-01-26T00:02:37.708Z,75.28
2023-01-26T00:07:42.928Z,75.02
2023-01-26T00:12:45.162Z,75.16
2023-01-26T00:17:47.304Z,75.21
2023-01-26T00:22:49.587Z,75.09
2023-01-26T00:27:51.861Z,75.35
2023-01-26T00:32:54.120Z,75.27
2023-01-26T00:37:56.395Z,75.48
2023-01-26T00:42:59.604Z,75.20
2023-01-26T00:48:02.104Z,75.32
2023-01-26T00:53:04.916Z,75.36
2023-01-26T00:58:08.222Z,75.33
2023-01-26T01:03:10.413Z,75.37
2023-01-26T01:08:13.385Z,75.41
2023-01-26T01:13:15.550Z,75.43
2023-01-26T01:18:17.634Z,75.70
2023-01-26T01:23:21.638Z,75.42
2023-01-26T01:28:23.957Z,75.39
2023-01-26T01:33:26.090Z,75.82
2023-01-26T01:38:28.406Z,75.93
2023-01-26T01:43:30.762Z,75.77
2023-01-26T01:48:51.385Z,75.88
2023-01-26T01:53:54.805Z,75.63
2023-01-26T01:58:58.568Z,75.79
2023-01-26T02:04:02.463Z,75.76
2023-01-26T02:09:06.350Z,76.01
2023-01-26T02:14:10.120Z,76.01
2023-01-26T02:19:23.358Z,75.98
2023-01-26T02:24:34.685Z,76.29
2023-01-26T02:29:36.837Z,76.08
2023-01-26T02:34:39.098Z,76.07
2023-01-26T02:39:59.091Z,76.28
2023-01-26T02:45:01.343Z,76.06
2023-01-26T02:50:05.532Z,76.01
2023-01-26T02:55:28.826Z,76.30
2023-01-26T03:00:35.184Z,76.12
2023-01-26T03:05:38.278Z,75.99
2023-01-26T03:10:53.768Z,76.15
2023-01-26T03:15:55.980Z,76.27
2023-01-26T03:21:18.500Z,76.25
2023-01-26T03:26:39.598Z,76.22
2023-01-26T03:31:42.755Z,76.05
2023-01-26T03:36:45.053Z,76.37
2023-01-26T03:42:08.305Z,76.27
2023-01-26T03:47:29.335Z,76.19
2023-01-26T03:52:51.598Z,76.25
2023-01-26T03:57:54.599Z,76.29
2023-01-26T04:03:15.339Z,76.37
2023-01-26T04:08:30.647Z,76.57
2023-01-26T04:13:54.898Z,76.24
2023-01-26T04:19:22.085Z,76.45
2023-01-26T04:24:24.896Z,76.51
2023-01-26T04:29:31.029Z,76.44
2023-01-26T04:34:33.208Z,76.38
2023-01-26T04:39:37.698Z,76.51
2023-01-26T04:44:40.760Z,76.53
2023-01-26T04:49:43.993Z,76.48
2023-01-26T04:54:47.569Z,76.39
2023-01-26T04:59:50.037Z,76.41
2023-01-26T05:04:54.157Z,76.37
2023-01-26T05:09:56.932Z,76.51
2023-01-26T05:15:13.666Z,76.67
2023-01-26T05:20:41.963Z,76.56
2023-01-26T05:25:51.029Z,76.57
2023-01-26T05:30:53.531Z,76.28
2023-01-26T05:35:56.839Z,76.52
2023-01-26T05:40:59.627Z,76.54
2023-01-26T05:46:03.115Z,76.60
2023-01-26T05:51:05.871Z,76.45
2023-01-26T05:56:10.306Z,76.57
2023-01-26T06:01:18.232Z,76.38
2023-01-26T06:06:26.296Z,76.49
2023-01-26T06:11:37.074Z,76.39
2023-01-26T06:17:08.646Z,76.05
2023-01-26T06:22:13.003Z,76.51
2023-01-26T06:27:19.505Z,76.35
2023-01-26T06:32:25.610Z,76.49
2023-01-26T06:37:30.129Z,76.47
2023-01-26T06:42:32.501Z,76.32
2023-01-26T06:47:36.740Z,76.24
2023-01-26T06:52:42.328Z,76.24
2023-01-26T06:58:07.139Z,76.31
2023-01-26T07:03:44.588Z,76.22
2023-01-26T07:08:47.064Z,76.24
2023-01-26T07:13:49.226Z,76.20
2023-01-26T07:18:53.303Z,76.23
2023-01-26T07:23:56.232Z,76.31
2023-01-26T07:28:58.507Z,76.29
2023-01-26T07:34:00.658Z,76.27
2023-01-26T07:39:02.948Z,76.24
2023-01-26T07:44:08.407Z,76.31
2023-01-26T07:49:12.125Z,76.34
2023-01-26T07:54:14.296Z,76.38
2023-01-26T07:59:19.550Z,76.21
2023-01-26T08:04:24.565Z,76.09
2023-01-26T08:09:26.833Z,76.16
2023-01-26T08:14:46.895Z,76.37
2023-01-26T08:19:50.430Z,76.43
2023-01-26T08:24:52.630Z,76.05
2023-01-26T08:29:55.132Z,76.11
2023-01-26T08:34:57.469Z,76.09
2023-01-26T08:40:02.426Z,76.20
2023-01-26T08:45:09.049Z,76.25
2023-01-26T08:50:14.101Z,76.06
2023-01-26T08:55:16.449Z,76.05
2023-01-26T09:00:19.114Z,76.19
2023-01-26T09:05:21.208Z,76.09
2023-01-26T09:10:23.889Z,76.05
2023-01-26T09:15:26.503Z,76.14
2023-01-26T09:20:28.694Z,76.09
2023-01-26T09:25:31.182Z,76.10
2023-01-26T09:30:33.781Z,76.05
2023-01-26T09:35:35.969Z,76.19
2023-01-26T09:40:44.396Z,76.22
2023-01-26T09:46:17.680Z,76.31
2023-01-26T09:51:24.248Z,75.99
2023-01-26T09:56:29.269Z,76.25
2023-01-26T10:01:42.119Z,76.40
2023-01-26T10:06:44.585Z,76.23
2023-01-26T10:11:58.958Z,76.53
2023-01-26T10:17:01.676Z,76.75
2023-01-26T10:22:14.226Z,77.10
2023-01-26T10:27:16.635Z,76.82
2023-01-26T10:32:18.833Z,77.13
2023-01-26T10:37:21.764Z,77.41
2023-01-26T10:42:24.567Z,77.73
2023-01-26T10:47:27.083Z,77.78
2023-01-26T10:52:29.377Z,77.99
2023-01-26T10:57:33.466Z,78.07
2023-01-26T11:02:37.208Z,78.30
2023-01-26T11:07:44.407Z,78.84
2023-01-26T11:12:46.672Z,78.66
2023-01-26T11:18:00.110Z,78.70
2023-01-26T11:23:41.431Z,79.05
2023-01-26T11:28:59.123Z,78.80
2023-01-26T11:34:21.589Z,79.10
2023-01-26T11:39:54.269Z,79.27
2023-01-26T11:45:17.861Z,78.94
2023-01-26T11:50:46.476Z,78.97
2023-01-26T11:55:48.715Z,78.69
2023-01-26T12:00:57.635Z,78.77
2023-01-26T12:06:05.061Z,78.85
2023-01-26T12:11:23.093Z,78.75
2023-01-26T12:16:39.297Z,78.90
2023-01-26T12:21:45.212Z,79.06
2023-01-26T12:26:49.516Z,78.65
2023-01-26T12:32:06.293Z,79.06
2023-01-26T12:37:42.678Z,79.17
2023-01-26T12:42:47.720Z,78.75
2023-01-26T12:47:55.973Z,79.12
2023-01-26T12:52:59.915Z,79.10
2023-01-26T12:58:05.438Z,79.42
2023-01-26T13:03:21.191Z,79.57
2023-01-26T13:08:32.485Z,79.68
2023-01-26T13:13:53.822Z,79.55
2023-01-26T13:18:57.492Z,79.52
2023-01-26T13:23:59.767Z,79.71
2023-01-26T13:29:20.773Z,80.41
2023-01-26T13:34:28.797Z,79.93
2023-01-26T13:39:38.772Z,80.17
2023-01-26T13:44:45.868Z,80.36
2023-01-26T13:49:50.706Z,80.35
2023-01-26T13:54:54.707Z,80.35
2023-01-26T14:00:02.227Z,80.60
2023-01-26T14:05:22.421Z,80.75
2023-01-26T14:10:24.838Z,80.46
2023-01-26T14:15:29.417Z,80.92
2023-01-26T14:20:38.221Z,80.73
2023-01-26T14:25:50.075Z,80.98
2023-01-26T14:30:58.699Z,80.75
2023-01-26T14:36:03.168Z,80.69
2023-01-26T14:41:11.399Z,81.01
2023-01-26T14:46:35.188Z,80.88
2023-01-26T14:51:37.811Z,81.03
2023-01-26T14:56:40.707Z,80.99
2023-01-26T15:01:42.981Z,80.81
2023-01-26T15:06:45.089Z,81.07
2023-01-26T15:12:12.270Z,81.04
2023-01-26T15:17:37.791Z,81.22
2023-01-26T15:22:40.056Z,80.97
2023-01-26T15:27:42.517Z,81.10
2023-01-26T15:32:46.059Z,81.06
2023-01-26T15:37:49.355Z,81.23
2023-01-26T15:42:51.757Z,81.13
2023-01-26T15:47:55.177Z,81.07
2023-01-26T15:52:58.405Z,81.17
2023-01-26T15:58:01.218Z,81.24
2023-01-26T16:03:10.318Z,81.41
2023-01-26T16:08:12.608Z,81.16
2023-01-26T16:13:19.645Z,81.36
2023-01-26T16:18:25.805Z,81.28
2023-01-26T16:23:29.387Z,81.52
2023-01-26T16:28:31.697Z,81.38
2023-01-26T16:33:37.894Z,81.44
2023-01-26T16:38:47.018Z,81.54
2023-01-26T16:43:49.269Z,81.42
2023-01-26T16:48:51.968Z,81.45
2023-01-26T16:53:54.921Z,81.59
2023-01-26T16:58:57.116Z,81.56
2023-01-26T17:03:59.536Z,81.46
2023-01-26T17:09:01.743Z,81.59
2023-01-26T17:14:04.008Z,81.47
2023-01-26T17:19:08.867Z,81.68
2023-01-26T17:24:11.494Z,81.69
2023-01-26T17:29:14.436Z,81.48
2023-01-26T17:34:16.829Z,81.44
2023-01-26T17:39:19.472Z,81.42
2023-01-26T17:44:21.887Z,81.58
2023-01-26T17:49:26.952Z,81.32
2023-01-26T17:54:29.100Z,81.33
2023-01-26T17:59:31.294Z,81.39
2023-01-26T18:04:33.514Z,81.16
2023-01-26T18:09:35.713Z,81.43
2023-01-26T18:14:37.921Z,81.11
2023-01-26T18:19:40.259Z,81.04
2023-01-26T18:24:42.452Z,80.96
2023-01-26T18:29:44.757Z,80.80
2023-01-26T18:34:47.400Z,81.12
2023-01-26T18:39:52.606Z,80.85
2023-01-26T18:45:01.029Z,80.82
2023-01-26T18:50:04.599Z,80.87
2023-01-26T18:55:08.677Z,80.70
2023-01-26T19:00:11.522Z,80.49
2023-01-26T19:05:14.053Z,80.71
2023-01-26T19:10:16.762Z,80.31
2023-01-26T19:15:41.125Z,80.55
2023-01-26T19:20:43.426Z,80.23
2023-01-26T19:25:45.749Z,80.36
2023-01-26T19:30:48.131Z,80.50
2023-01-26T19:35:51.232Z,80.39
2023-01-26T19:40:53.439Z,80.45
2023-01-26T19:45:57.290Z,80.25
2023-01-26T19:51:14.055Z,80.46
2023-01-26T19:56:24.805Z,80.46
2023-01-26T20:01:28.173Z,80.45
2023-01-26T20:06:32.774Z,80.12
2023-01-26T20:11:35.073Z,80.24
2023-01-26T20:16:37.863Z,80.10
2023-01-26T20:21:40.625Z,80.43
2023-01-26T20:26:46.537Z,80.11
2023-01-26T20:31:49.794Z,80.06
2023-01-26T20:36:54.821Z,79.77
2023-01-26T20:41:57.106Z,79.96
2023-01-26T20:46:59.457Z,80.05
2023-01-26T20:52:02.508Z,80.09
2023-01-26T20:57:04.653Z,79.97
2023-01-26T21:02:07.214Z,79.94
2023-01-26T21:07:09.851Z,80.01
2023-01-26T21:12:12.027Z,79.95
2023-01-26T21:17:15.829Z,79.85
2023-01-26T21:22:17.957Z,79.85
2023-01-26T21:27:20.132Z,79.60
2023-01-26T21:32:22.430Z,79.61
2023-01-26T21:37:24.679Z,79.81
2023-01-26T21:42:26.794Z,79.87
2023-01-26T21:47:28.878Z,79.67
2023-01-26T21:52:49.554Z,79.50
2023-01-26T21:58:10.047Z,79.66
2023-01-26T22:03:13.472Z,79.65
2023-01-26T22:08:15.617Z,79.41
2023-01-26T22:13:17.695Z,79.50
2023-01-26T22:18:19.788Z,79.30
2023-01-26T22:23:22.635Z,79.46
2023-01-26T22:28:24.968Z,79.44
2023-01-26T22:33:27.459Z,79.29
2023-01-26T22:38:29.653Z,79.36
2023-01-26T22:43:32.604Z,79.37
2023-01-26T22:48:35.126Z,79.38
2023-01-26T22:53:37.296Z,79.41
2023-01-26T22:58:56.715Z,79.22
2023-01-26T23:04:01.289Z,79.38
2023-01-26T23:09:04.933Z,79.26
2023-01-26T23:14:07.135Z,79.39
2023-01-26T23:19:09.355Z,79.15
2023-01-26T23:24:14.756Z,79.32
2023-01-26T23:29:41.308Z,79.35
2023-01-26T23:34:43.444Z,79.36
2023-01-26T23:39:45.660Z,79.17
2023-01-26T23:44:47.854Z,79.34
2023-01-26T23:49:49.962Z,79.05
2023-01-26T23:54:52.102Z,79.19
2023-01-26T23:59:54.358Z,79.02
